罗盘
风向 的 风向 360° Orléans – Saint-Denis-de-l'Hôtel Airport 5/23
风: 4 kt, 2 beaufort

2 kt

3 kt
改变
0 1.000 2.000 3.000 4.000 5.000
OVC 2.100 ft
METAR LFOZ 250400Z AUTO 36004KT 9999 OVC021 11/11 Q1014

METAR Orléans – Saint-Denis-de-l'Hôtel Airport - LFOZ/ORE

Orléans – Saint-Denis-de-l'Hôtel Airport是Orléans,法国中的小机场。 该机场有一条跑道: 5/23. 该领域的国际民航组织标志是LFOZ 它的国际航空运输协会代码是ORE.

这份报告是针对2022年9月25日 06:00, 当地时间在Orléans – Saint-Denis-de-l'Hôtel Airport进行的。

机场观察

风向为360°,速度为4 kt。

可见度为10 km 或者更多。

有乌云密布在2.100 ft的高度。 破损或更高的上限为2.100 ft。

温度和风寒是11 °C。 露点为11 °C,相对湿度为100%。 海平面上的气压为1014 hPa (QNH)。

白天

今天,太阳从07:42升起,在19:43降落。 这适用于Orléans – Saint-Denis-de-l'Hôtel Airport,世界夏令时可能有所不同。 当地时间与世界标准时间之间的时差为+2 小时。 夏令时目前正在进行中。

公司介绍

在这个机场,你可以找到飞行俱乐部 和 跳伞中心。 这个机场上的公司有Aéroclub d'Orléans Loiret Col. Jean Demozay, Club de Voltige Aérienne d'Orléans - CVAO 和 EPCOL Orleans。

体会

到Vliegles.nl去找飞行课程,跳伞和其他飞行体验。 浏览页面,了解Orléans – Saint-Denis-de-l'Hôtel Airport附近所有可用的活动。 你也可以使用搜索功能来寻找你所在地附近的特定飞行课程、跳伞或其他飞行体验。

跑道

Id 标题 侧风 逆风 侧风 %
5/23 053°-233° 3 kt 2 kt 80 %

逆风成分最大的方向会被突出显示,并用于横风计算。 这并不一定意味着这个方向在使用。

乌云

2.100 ft OVC 乌云密布

温度 & 天气

温度 11 °C
露点 11 °C
相对湿度 100%
Kp-index 2  

白天

日出
07:42 (1h 07m)
中午
13:43
日落
19:43

小工具

你想在你的网站上有一个关于Orléans – Saint-Denis-de-l'Hôtel Airport的当前航空天气(METAR)的小部件吗?

</> 显示HTML代码

我们和第三方通过cookies跟踪您在我们网站上的上网行为。如果您继续,我们认为您同意我们的cookie政策。 了解更多